sensor_id;sensor_type;location;lat;lon;timestamp;temperature;humidity
38866;DHT22;62686;48.984;8.394;2022-12-11T00:00:55;-1.80;86.00
38866;DHT22;62686;48.984;8.394;2022-12-11T00:03:23;-1.80;86.10
38866;DHT22;62686;48.984;8.394;2022-12-11T00:05:51;-1.70;86.10
38866;DHT22;62686;48.984;8.394;2022-12-11T00:08:19;-1.80;86.10
38866;DHT22;62686;48.984;8.394;2022-12-11T00:10:47;-1.80;86.00
38866;DHT22;62686;48.984;8.394;2022-12-11T00:13:17;-1.90;86.00
38866;DHT22;62686;48.984;8.394;2022-12-11T00:15:45;-1.90;86.00
38866;DHT22;62686;48.984;8.394;2022-12-11T00:18:13;-1.90;86.00
38866;DHT22;62686;48.984;8.394;2022-12-11T00:20:41;-1.90;86.00
38866;DHT22;62686;48.984;8.394;2022-12-11T00:23:10;-1.90;86.00
38866;DHT22;62686;48.984;8.394;2022-12-11T00:25:40;-1.80;86.20
38866;DHT22;62686;48.984;8.394;2022-12-11T00:28:09;-1.90;86.00
38866;DHT22;62686;48.984;8.394;2022-12-11T00:30:40;-1.90;86.10
38866;DHT22;62686;48.984;8.394;2022-12-11T00:33:09;-2.00;85.90
38866;DHT22;62686;48.984;8.394;2022-12-11T00:35:37;-2.00;85.90
38866;DHT22;62686;48.984;8.394;2022-12-11T00:38:05;-2.00;85.80
38866;DHT22;62686;48.984;8.394;2022-12-11T00:40:34;-2.10;85.80
38866;DHT22;62686;48.984;8.394;2022-12-11T00:43:02;-2.10;85.80
38866;DHT22;62686;48.984;8.394;2022-12-11T00:45:30;-2.00;86.70
38866;DHT22;62686;48.984;8.394;2022-12-11T00:47:59;-2.10;85.80
38866;DHT22;62686;48.984;8.394;2022-12-11T00:50:27;-2.00;85.90
38866;DHT22;62686;48.984;8.394;2022-12-11T00:52:55;-2.10;85.90
38866;DHT22;62686;48.984;8.394;2022-12-11T00:55:23;-2.20;85.70
38866;DHT22;62686;48.984;8.394;2022-12-11T00:57:53;-2.10;85.80
38866;DHT22;62686;48.984;8.394;2022-12-11T01:00:21;-2.20;85.70
38866;DHT22;62686;48.984;8.394;2022-12-11T01:02:50;-2.20;85.70
38866;DHT22;62686;48.984;8.394;2022-12-11T01:05:19;-2.10;85.80
38866;DHT22;62686;48.984;8.394;2022-12-11T01:07:47;-2.10;85.90
38866;DHT22;62686;48.984;8.394;2022-12-11T01:10:16;-2.10;85.90
38866;DHT22;62686;48.984;8.394;2022-12-11T01:12:54;-2.10;86.00
38866;DHT22;62686;48.984;8.394;2022-12-11T01:15:25;-2.20;85.70
38866;DHT22;62686;48.984;8.394;2022-12-11T01:17:54;-2.40;85.30
38866;DHT22;62686;48.984;8.394;2022-12-11T01:20:26;-2.40;85.20
38866;DHT22;62686;48.984;8.394;2022-12-11T01:22:56;-2.30;85.40
38866;DHT22;62686;48.984;8.394;2022-12-11T01:25:25;-2.40;85.20
38866;DHT22;62686;48.984;8.394;2022-12-11T01:27:54;-2.50;85.00
38866;DHT22;62686;48.984;8.394;2022-12-11T01:30:23;-2.60;84.80
38866;DHT22;62686;48.984;8.394;2022-12-11T01:32:52;-2.50;85.00
38866;DHT22;62686;48.984;8.394;2022-12-11T01:35:20;-2.40;85.20
38866;DHT22;62686;48.984;8.394;2022-12-11T01:37:49;-2.50;85.00
38866;DHT22;62686;48.984;8.394;2022-12-11T01:40:19;-2.40;85.10
38866;DHT22;62686;48.984;8.394;2022-12-11T01:42:47;-2.50;84.90
38866;DHT22;62686;48.984;8.394;2022-12-11T01:45:31;-2.50;85.00
38866;DHT22;62686;48.984;8.394;2022-12-11T01:48:06;-2.50;85.00
38866;DHT22;62686;48.984;8.394;2022-12-11T01:50:38;-2.50;85.00
38866;DHT22;62686;48.984;8.394;2022-12-11T01:53:12;-2.50;85.10
38866;DHT22;62686;48.984;8.394;2022-12-11T01:55:42;-2.40;85.30
38866;DHT22;62686;48.984;8.394;2022-12-11T01:58:11;-2.40;86.10
38866;DHT22;62686;48.984;8.394;2022-12-11T02:00:39;-2.40;85.30
38866;DHT22;62686;48.984;8.394;2022-12-11T02:03:08;-2.30;85.50
38866;DHT22;62686;48.984;8.394;2022-12-11T02:05:36;-2.20;85.80
38866;DHT22;62686;48.984;8.394;2022-12-11T02:08:05;-2.10;86.00
38866;DHT22;62686;48.984;8.394;2022-12-11T02:10:57;-2.00;86.20
38866;DHT22;62686;48.984;8.394;2022-12-11T02:13:33;-1.90;86.30
38866;DHT22;62686;48.984;8.394;2022-12-11T02:16:08;-1.90;86.40
38866;DHT22;62686;48.984;8.394;2022-12-11T02:18:43;-1.90;86.40
38866;DHT22;62686;48.984;8.394;2022-12-11T02:21:18;-1.80;86.60
38866;DHT22;62686;48.984;8.394;2022-12-11T02:27:07;-1.90;86.60
38866;DHT22;62686;48.984;8.394;2022-12-11T02:29:44;-1.90;86.60
38866;DHT22;62686;48.984;8.394;2022-12-11T02:32:18;-1.90;86.70
38866;DHT22;62686;48.984;8.394;2022-12-11T02:34:53;-1.90;86.80
38866;DHT22;62686;48.984;8.394;2022-12-11T02:37:24;-1.90;86.90
38866;DHT22;62686;48.984;8.394;2022-12-11T02:39:55;-1.90;86.90
38866;DHT22;62686;48.984;8.394;2022-12-11T02:42:27;-1.90;86.90
38866;DHT22;62686;48.984;8.394;2022-12-11T02:44:59;-1.90;87.00
38866;DHT22;62686;48.984;8.394;2022-12-11T02:47:29;-1.90;87.00
38866;DHT22;62686;48.984;8.394;2022-12-11T02:50:01;-1.80;87.10
38866;DHT22;62686;48.984;8.394;2022-12-11T02:52:32;-1.80;87.10
38866;DHT22;62686;48.984;8.394;2022-12-11T02:55:02;-1.90;86.90
38866;DHT22;62686;48.984;8.394;2022-12-11T02:57:36;-1.90;86.80
38866;DHT22;62686;48.984;8.394;2022-12-11T03:00:08;-1.90;86.60
38866;DHT22;62686;48.984;8.394;2022-12-11T03:02:37;-1.80;86.60
38866;DHT22;62686;48.984;8.394;2022-12-11T03:05:06;-1.80;86.40
38866;DHT22;62686;48.984;8.394;2022-12-11T03:07:37;-1.80;86.20
38866;DHT22;62686;48.984;8.394;2022-12-11T03:10:06;-1.80;86.00
38866;DHT22;62686;48.984;8.394;2022-12-11T03:12:37;-1.80;85.50
38866;DHT22;62686;48.984;8.394;2022-12-11T03:15:12;-1.80;84.70
38866;DHT22;62686;48.984;8.394;2022-12-11T03:17:46;-1.80;84.40
38866;DHT22;62686;48.984;8.394;2022-12-11T03:20:27;-1.70;84.20
38866;DHT22;62686;48.984;8.394;2022-12-11T03:23:06;-1.70;84.10
38866;DHT22;62686;48.984;8.394;2022-12-11T03:25:42;-1.70;84.10
38866;DHT22;62686;48.984;8.394;2022-12-11T03:28:13;-1.70;84.30
38866;DHT22;62686;48.984;8.394;2022-12-11T03:30:46;-1.70;84.30
38866;DHT22;62686;48.984;8.394;2022-12-11T03:33:22;-1.70;84.50
38866;DHT22;62686;48.984;8.394;2022-12-11T03:35:54;-1.60;85.50
38866;DHT22;62686;48.984;8.394;2022-12-11T03:38:26;-1.60;84.50
38866;DHT22;62686;48.984;8.394;2022-12-11T03:40:58;-1.70;84.20
38866;DHT22;62686;48.984;8.394;2022-12-11T03:43:27;-1.60;82.60
38866;DHT22;62686;48.984;8.394;2022-12-11T03:45:58;-1.60;81.70
38866;DHT22;62686;48.984;8.394;2022-12-11T03:48:30;-1.60;80.80
38866;DHT22;62686;48.984;8.394;2022-12-11T03:51:00;-1.50;80.90
38866;DHT22;62686;48.984;8.394;2022-12-11T03:53:31;-1.50;81.10
38866;DHT22;62686;48.984;8.394;2022-12-11T03:56:01;-1.50;80.90
38866;DHT22;62686;48.984;8.394;2022-12-11T03:58:29;-1.50;80.80
38866;DHT22;62686;48.984;8.394;2022-12-11T04:00:59;-1.40;80.80
38866;DHT22;62686;48.984;8.394;2022-12-11T04:03:27;-1.50;80.40
38866;DHT22;62686;48.984;8.394;2022-12-11T04:05:55;-1.40;79.40
38866;DHT22;62686;48.984;8.394;2022-12-11T04:08:23;-1.40;78.70
38866;DHT22;62686;48.984;8.394;2022-12-11T04:10:51;-1.40;78.50
38866;DHT22;62686;48.984;8.394;2022-12-11T04:13:40;-1.40;78.50
38866;DHT22;62686;48.984;8.394;2022-12-11T04:16:10;-1.40;78.30
38866;DHT22;62686;48.984;8.394;2022-12-11T04:18:37;-1.40;78.30
38866;DHT22;62686;48.984;8.394;2022-12-11T04:21:22;-1.50;78.10
38866;DHT22;62686;48.984;8.394;2022-12-11T04:24:08;-1.40;78.50
38866;DHT22;62686;48.984;8.394;2022-12-11T04:26:43;-1.40;78.30
38866;DHT22;62686;48.984;8.394;2022-12-11T04:29:11;-1.40;78.10
38866;DHT22;62686;48.984;8.394;2022-12-11T04:31:41;-1.50;77.90
38866;DHT22;62686;48.984;8.394;2022-12-11T04:34:09;-1.50;77.20
38866;DHT22;62686;48.984;8.394;2022-12-11T04:36:37;-1.50;77.00
38866;DHT22;62686;48.984;8.394;2022-12-11T04:39:05;-1.50;76.80
38866;DHT22;62686;48.984;8.394;2022-12-11T04:41:34;-1.40;77.20
38866;DHT22;62686;48.984;8.394;2022-12-11T04:44:03;-1.30;76.40
38866;DHT22;62686;48.984;8.394;2022-12-11T04:46:31;-1.40;75.40
38866;DHT22;62686;48.984;8.394;2022-12-11T04:49:01;-1.30;73.20
38866;DHT22;62686;48.984;8.394;2022-12-11T04:51:29;-1.40;72.90
38866;DHT22;62686;48.984;8.394;2022-12-11T04:53:57;-1.40;72.60
38866;DHT22;62686;48.984;8.394;2022-12-11T04:56:26;-1.30;72.40
38866;DHT22;62686;48.984;8.394;2022-12-11T04:58:54;-1.40;71.80
38866;DHT22;62686;48.984;8.394;2022-12-11T05:01:22;-1.40;71.30
38866;DHT22;62686;48.984;8.394;2022-12-11T05:03:50;-1.40;71.00
38866;DHT22;62686;48.984;8.394;2022-12-11T05:06:20;-1.50;70.40
38866;DHT22;62686;48.984;8.394;2022-12-11T05:08:48;-1.50;70.00
38866;DHT22;62686;48.984;8.394;2022-12-11T05:11:16;-1.60;70.00
38866;DHT22;62686;48.984;8.394;2022-12-11T05:13:45;-1.70;70.40
38866;DHT22;62686;48.984;8.394;2022-12-11T05:16:15;-1.70;71.10
38866;DHT22;62686;48.984;8.394;2022-12-11T05:18:43;-1.70;71.40
38866;DHT22;62686;48.984;8.394;2022-12-11T05:21:13;-1.70;71.10
38866;DHT22;62686;48.984;8.394;2022-12-11T05:23:43;-1.80;70.80
38866;DHT22;62686;48.984;8.394;2022-12-11T05:26:13;-1.80;71.00
38866;DHT22;62686;48.984;8.394;2022-12-11T05:28:42;-1.80;71.90
38866;DHT22;62686;48.984;8.394;2022-12-11T05:31:13;-1.90;72.90
38866;DHT22;62686;48.984;8.394;2022-12-11T05:33:42;-1.90;74.10
38866;DHT22;62686;48.984;8.394;2022-12-11T05:36:14;-1.90;75.00
38866;DHT22;62686;48.984;8.394;2022-12-11T05:38:45;-1.80;75.90
38866;DHT22;62686;48.984;8.394;2022-12-11T05:41:15;-1.70;76.90
38866;DHT22;62686;48.984;8.394;2022-12-11T05:43:44;-1.70;77.10
38866;DHT22;62686;48.984;8.394;2022-12-11T05:46:14;-1.70;76.70
38866;DHT22;62686;48.984;8.394;2022-12-11T05:48:43;-1.70;75.40
38866;DHT22;62686;48.984;8.394;2022-12-11T05:51:13;-1.70;74.70
38866;DHT22;62686;48.984;8.394;2022-12-11T05:53:42;-1.80;75.10
38866;DHT22;62686;48.984;8.394;2022-12-11T05:56:14;-1.80;74.70
38866;DHT22;62686;48.984;8.394;2022-12-11T05:58:43;-1.70;75.50
38866;DHT22;62686;48.984;8.394;2022-12-11T06:01:14;-1.70;76.60
38866;DHT22;62686;48.984;8.394;2022-12-11T06:03:43;-1.70;76.70
38866;DHT22;62686;48.984;8.394;2022-12-11T06:06:11;-1.70;76.80
38866;DHT22;62686;48.984;8.394;2022-12-11T06:08:39;-1.70;77.10
38866;DHT22;62686;48.984;8.394;2022-12-11T06:11:08;-1.70;77.60
38866;DHT22;62686;48.984;8.394;2022-12-11T06:13:37;-1.70;77.90
38866;DHT22;62686;48.984;8.394;2022-12-11T06:16:06;-1.70;78.40
38866;DHT22;62686;48.984;8.394;2022-12-11T06:18:35;-1.60;79.30
38866;DHT22;62686;48.984;8.394;2022-12-11T06:21:13;-1.60;79.30
38866;DHT22;62686;48.984;8.394;2022-12-11T06:23:42;-1.60;79.20
38866;DHT22;62686;48.984;8.394;2022-12-11T06:26:11;-1.50;78.80
38866;DHT22;62686;48.984;8.394;2022-12-11T06:28:41;-1.60;77.80
38866;DHT22;62686;48.984;8.394;2022-12-11T06:31:09;-1.60;75.40
38866;DHT22;62686;48.984;8.394;2022-12-11T06:33:38;-1.70;74.00
38866;DHT22;62686;48.984;8.394;2022-12-11T06:36:07;-1.70;73.40
38866;DHT22;62686;48.984;8.394;2022-12-11T06:38:36;-1.80;73.30
38866;DHT22;62686;48.984;8.394;2022-12-11T06:41:06;-1.80;73.80
38866;DHT22;62686;48.984;8.394;2022-12-11T06:43:36;-1.80;73.20
38866;DHT22;62686;48.984;8.394;2022-12-11T06:46:08;-1.90;72.70
38866;DHT22;62686;48.984;8.394;2022-12-11T06:48:36;-2.00;73.10
38866;DHT22;62686;48.984;8.394;2022-12-11T06:51:05;-2.00;74.30
38866;DHT22;62686;48.984;8.394;2022-12-11T06:53:34;-1.90;75.70
38866;DHT22;62686;48.984;8.394;2022-12-11T06:56:03;-1.90;77.20
38866;DHT22;62686;48.984;8.394;2022-12-11T06:58:33;-2.00;77.30
38866;DHT22;62686;48.984;8.394;2022-12-11T07:01:02;-2.00;77.40
38866;DHT22;62686;48.984;8.394;2022-12-11T07:03:32;-2.00;77.40
38866;DHT22;62686;48.984;8.394;2022-12-11T07:06:00;-2.00;77.80
38866;DHT22;62686;48.984;8.394;2022-12-11T07:08:28;-2.00;78.60
38866;DHT22;62686;48.984;8.394;2022-12-11T07:11:02;-2.00;79.20
38866;DHT22;62686;48.984;8.394;2022-12-11T07:13:30;-1.90;79.90
38866;DHT22;62686;48.984;8.394;2022-12-11T07:15:59;-1.90;80.20
38866;DHT22;62686;48.984;8.394;2022-12-11T07:18:27;-1.90;80.60
38866;DHT22;62686;48.984;8.394;2022-12-11T07:20:58;-1.80;81.30
38866;DHT22;62686;48.984;8.394;2022-12-11T07:23:27;-1.80;81.30
38866;DHT22;62686;48.984;8.394;2022-12-11T07:25:55;-1.80;81.30
38866;DHT22;62686;48.984;8.394;2022-12-11T07:28:23;-1.70;81.70
38866;DHT22;62686;48.984;8.394;2022-12-11T07:30:51;-1.70;81.90
38866;DHT22;62686;48.984;8.394;2022-12-11T07:33:19;-1.60;82.20
38866;DHT22;62686;48.984;8.394;2022-12-11T07:35:48;-1.60;82.10
38866;DHT22;62686;48.984;8.394;2022-12-11T07:38:17;-1.60;82.10
38866;DHT22;62686;48.984;8.394;2022-12-11T07:40:45;-1.60;82.00
38866;DHT22;62686;48.984;8.394;2022-12-11T07:43:13;-1.60;82.10
38866;DHT22;62686;48.984;8.394;2022-12-11T07:45:41;-1.50;82.10
38866;DHT22;62686;48.984;8.394;2022-12-11T07:48:09;-1.40;82.30
38866;DHT22;62686;48.984;8.394;2022-12-11T07:50:38;-1.40;81.70
38866;DHT22;62686;48.984;8.394;2022-12-11T07:53:06;-1.40;81.10
38866;DHT22;62686;48.984;8.394;2022-12-11T07:55:35;-1.40;81.00
38866;DHT22;62686;48.984;8.394;2022-12-11T07:58:03;-1.40;81.00
38866;DHT22;62686;48.984;8.394;2022-12-11T08:00:31;-1.30;81.60
38866;DHT22;62686;48.984;8.394;2022-12-11T08:02:59;-1.30;82.00
38866;DHT22;62686;48.984;8.394;2022-12-11T08:05:28;-1.20;82.40
38866;DHT22;62686;48.984;8.394;2022-12-11T08:07:56;-1.10;82.90
38866;DHT22;62686;48.984;8.394;2022-12-11T08:10:24;-1.00;82.70
38866;DHT22;62686;48.984;8.394;2022-12-11T08:12:53;-1.00;82.20
38866;DHT22;62686;48.984;8.394;2022-12-11T08:15:21;-1.00;81.90
38866;DHT22;62686;48.984;8.394;2022-12-11T08:17:49;-1.00;81.00
38866;DHT22;62686;48.984;8.394;2022-12-11T08:20:17;-1.00;79.80
38866;DHT22;62686;48.984;8.394;2022-12-11T08:22:45;-0.80;78.60
38866;DHT22;62686;48.984;8.394;2022-12-11T08:25:13;-0.70;76.30
38866;DHT22;62686;48.984;8.394;2022-12-11T08:27:41;-0.80;73.30
38866;DHT22;62686;48.984;8.394;2022-12-11T08:30:12;-0.80;71.80
38866;DHT22;62686;48.984;8.394;2022-12-11T08:32:40;-0.80;70.90
38866;DHT22;62686;48.984;8.394;2022-12-11T08:35:08;-0.70;69.50
38866;DHT22;62686;48.984;8.394;2022-12-11T08:37:36;-0.70;66.00
38866;DHT22;62686;48.984;8.394;2022-12-11T08:40:07;-0.60;63.20
38866;DHT22;62686;48.984;8.394;2022-12-11T08:42:36;-0.60;60.30
38866;DHT22;62686;48.984;8.394;2022-12-11T08:45:05;-0.60;59.30
38866;DHT22;62686;48.984;8.394;2022-12-11T08:47:35;-0.50;58.50
38866;DHT22;62686;48.984;8.394;2022-12-11T08:50:04;-0.50;58.10
38866;DHT22;62686;48.984;8.394;2022-12-11T08:52:33;-0.50;55.70
38866;DHT22;62686;48.984;8.394;2022-12-11T08:55:01;-0.40;55.50
38866;DHT22;62686;48.984;8.394;2022-12-11T08:57:29;-0.40;57.30
38866;DHT22;62686;48.984;8.394;2022-12-11T08:59:57;-0.30;51.30
38866;DHT22;62686;48.984;8.394;2022-12-11T09:02:25;-0.20;53.60
38866;DHT22;62686;48.984;8.394;2022-12-11T09:04:54;-0.10;49.70
38866;DHT22;62686;48.984;8.394;2022-12-11T09:07:22;-0.10;43.80
38866;DHT22;62686;48.984;8.394;2022-12-11T09:09:53;-0.20;40.00
38866;DHT22;62686;48.984;8.394;2022-12-11T09:12:21;-0.10;43.50
38866;DHT22;62686;48.984;8.394;2022-12-11T09:14:49;0.00;45.40
38866;DHT22;62686;48.984;8.394;2022-12-11T09:17:17;0.10;46.10
38866;DHT22;62686;48.984;8.394;2022-12-11T09:19:45;0.20;36.70
38866;DHT22;62686;48.984;8.394;2022-12-11T09:22:15;0.30;37.90
38866;DHT22;62686;48.984;8.394;2022-12-11T09:24:43;0.40;37.60
38866;DHT22;62686;48.984;8.394;2022-12-11T09:27:12;0.50;34.40
38866;DHT22;62686;48.984;8.394;2022-12-11T09:29:40;0.50;24.90
38866;DHT22;62686;48.984;8.394;2022-12-11T09:32:08;0.60;24.40
38866;DHT22;62686;48.984;8.394;2022-12-11T09:34:36;0.60;16.80
38866;DHT22;62686;48.984;8.394;2022-12-11T09:37:04;0.50;11.10
38866;DHT22;62686;48.984;8.394;2022-12-11T09:39:33;0.60;13.90
38866;DHT22;62686;48.984;8.394;2022-12-11T09:42:05;0.60;13.40
38866;DHT22;62686;48.984;8.394;2022-12-11T09:44:40;0.60;10.50
38866;DHT22;62686;48.984;8.394;2022-12-11T09:47:24;0.70;12.30
38866;DHT22;62686;48.984;8.394;2022-12-11T09:50:02;0.80;10.20
38866;DHT22;62686;48.984;8.394;2022-12-11T09:52:34;0.80;7.30
38866;DHT22;62686;48.984;8.394;2022-12-11T09:55:12;0.90;6.10
38866;DHT22;62686;48.984;8.394;2022-12-11T09:57:47;1.00;9.00
38866;DHT22;62686;48.984;8.394;2022-12-11T10:00:23;1.00;1.00
38866;DHT22;62686;48.984;8.394;2022-12-11T10:06:00;1.00;4.80
38866;DHT22;62686;48.984;8.394;2022-12-11T10:08:34;1.20;2.60
38866;DHT22;62686;48.984;8.394;2022-12-11T10:11:21;1.20;1.00
38866;DHT22;62686;48.984;8.394;2022-12-11T10:14:01;1.10;1.00
38866;DHT22;62686;48.984;8.394;2022-12-11T10:16:35;1.30;1.00
38866;DHT22;62686;48.984;8.394;2022-12-11T10:19:06;1.40;1.00
38866;DHT22;62686;48.984;8.394;2022-12-11T10:21:41;1.60;1.00
38866;DHT22;62686;48.984;8.394;2022-12-11T10:24:13;1.60;1.00
38866;DHT22;62686;48.984;8.394;2022-12-11T10:26:54;1.50;1.00
38866;DHT22;62686;48.984;8.394;2022-12-11T10:29:23;1.70;1.00
38866;DHT22;62686;48.984;8.394;2022-12-11T10:31:55;1.60;1.00
38866;DHT22;62686;48.984;8.394;2022-12-11T10:34:31;1.40;1.00
38866;DHT22;62686;48.984;8.394;2022-12-11T10:37:00;1.70;1.00
38866;DHT22;62686;48.984;8.394;2022-12-11T10:39:28;1.90;1.00
38866;DHT22;62686;48.984;8.394;2022-12-11T10:41:58;1.90;1.00
38866;DHT22;62686;48.984;8.394;2022-12-11T10:44:27;1.90;1.00
38866;DHT22;62686;48.984;8.394;2022-12-11T10:47:04;2.10;1.00
38866;DHT22;62686;48.984;8.394;2022-12-11T10:49:35;2.10;1.00
38866;DHT22;62686;48.984;8.394;2022-12-11T10:52:09;2.00;1.00
38866;DHT22;62686;48.984;8.394;2022-12-11T10:54:39;2.00;1.00
38866;DHT22;62686;48.984;8.394;2022-12-11T10:57:10;1.90;1.00
38866;DHT22;62686;48.984;8.394;2022-12-11T10:59:48;1.80;1.00
38866;DHT22;62686;48.984;8.394;2022-12-11T11:02:20;1.80;1.00
38866;DHT22;62686;48.984;8.394;2022-12-11T11:04:50;1.80;1.00
38866;DHT22;62686;48.984;8.394;2022-12-11T11:07:20;1.90;1.00
38866;DHT22;62686;48.984;8.394;2022-12-11T11:09:50;2.00;1.00
38866;DHT22;62686;48.984;8.394;2022-12-11T11:12:24;2.00;1.00
38866;DHT22;62686;48.984;8.394;2022-12-11T11:15:00;1.90;1.00
38866;DHT22;62686;48.984;8.394;2022-12-11T11:17:30;1.90;1.00
38866;DHT22;62686;48.984;8.394;2022-12-11T11:20:10;1.80;1.00
38866;DHT22;62686;48.984;8.394;2022-12-11T11:22:41;2.00;1.00
38866;DHT22;62686;48.984;8.394;2022-12-11T11:25:16;2.10;1.00
38866;DHT22;62686;48.984;8.394;2022-12-11T11:27:49;2.00;1.00
38866;DHT22;62686;48.984;8.394;2022-12-11T11:30:20;2.00;1.00
38866;DHT22;62686;48.984;8.394;2022-12-11T11:32:50;2.00;1.00
38866;DHT22;62686;48.984;8.394;2022-12-11T11:35:22;2.10;1.00
38866;DHT22;62686;48.984;8.394;2022-12-11T11:37:59;2.10;1.00
38866;DHT22;62686;48.984;8.394;2022-12-11T11:40:30;2.20;1.00
38866;DHT22;62686;48.984;8.394;2022-12-11T11:43:12;2.30;1.00
38866;DHT22;62686;48.984;8.394;2022-12-11T11:45:46;2.30;1.00
38866;DHT22;62686;48.984;8.394;2022-12-11T11:48:32;2.00;1.00
38866;DHT22;62686;48.984;8.394;2022-12-11T11:51:10;2.00;1.00
38866;DHT22;62686;48.984;8.394;2022-12-11T11:53:40;2.10;1.00
38866;DHT22;62686;48.984;8.394;2022-12-11T11:56:16;2.20;1.00
38866;DHT22;62686;48.984;8.394;2022-12-11T12:01:32;2.30;1.00
38866;DHT22;62686;48.984;8.394;2022-12-11T12:04:01;2.10;1.00
38866;DHT22;62686;48.984;8.394;2022-12-11T12:06:39;1.90;1.00
38866;DHT22;62686;48.984;8.394;2022-12-11T12:09:29;2.00;1.00
38866;DHT22;62686;48.984;8.394;2022-12-11T12:12:10;1.90;1.00
38866;DHT22;62686;48.984;8.394;2022-12-11T12:14:50;2.00;1.00
38866;DHT22;62686;48.984;8.394;2022-12-11T12:17:28;2.00;1.00
38866;DHT22;62686;48.984;8.394;2022-12-11T12:20:05;2.00;1.00
38866;DHT22;62686;48.984;8.394;2022-12-11T12:22:47;1.90;1.00
38866;DHT22;62686;48.984;8.394;2022-12-11T12:25:25;1.70;1.00
38866;DHT22;62686;48.984;8.394;2022-12-11T12:28:01;1.60;1.00
38866;DHT22;62686;48.984;8.394;2022-12-11T12:30:42;1.60;1.00
38866;DHT22;62686;48.984;8.394;2022-12-11T12:33:24;1.70;1.00
38866;DHT22;62686;48.984;8.394;2022-12-11T12:35:59;1.70;1.00
38866;DHT22;62686;48.984;8.394;2022-12-11T12:38:40;1.90;1.00
38866;DHT22;62686;48.984;8.394;2022-12-11T12:41:14;1.90;1.00
38866;DHT22;62686;48.984;8.394;2022-12-11T12:44:10;1.60;1.00
38866;DHT22;62686;48.984;8.394;2022-12-11T12:46:50;1.60;1.00
38866;DHT22;62686;48.984;8.394;2022-12-11T12:49:29;1.70;1.00
38866;DHT22;62686;48.984;8.394;2022-12-11T12:52:00;1.60;1.00
38866;DHT22;62686;48.984;8.394;2022-12-11T12:54:30;1.70;1.00
38866;DHT22;62686;48.984;8.394;2022-12-11T12:57:01;1.70;1.00
38866;DHT22;62686;48.984;8.394;2022-12-11T12:59:30;1.70;1.00
38866;DHT22;62686;48.984;8.394;2022-12-11T13:02:01;1.70;1.00
38866;DHT22;62686;48.984;8.394;2022-12-11T13:04:35;1.60;1.00
38866;DHT22;62686;48.984;8.394;2022-12-11T13:07:26;1.50;1.00
38866;DHT22;62686;48.984;8.394;2022-12-11T13:09:57;1.50;1.00
38866;DHT22;62686;48.984;8.394;2022-12-11T13:12:40;1.60;1.00
38866;DHT22;62686;48.984;8.394;2022-12-11T13:15:30;1.70;1.00
38866;DHT22;62686;48.984;8.394;2022-12-11T13:18:02;1.80;1.00
38866;DHT22;62686;48.984;8.394;2022-12-11T13:20:32;1.80;1.00
38866;DHT22;62686;48.984;8.394;2022-12-11T13:23:19;1.80;1.00
38866;DHT22;62686;48.984;8.394;2022-12-11T13:25:53;1.80;1.00
38866;DHT22;62686;48.984;8.394;2022-12-11T13:28:28;1.70;1.00
38866;DHT22;62686;48.984;8.394;2022-12-11T13:30:59;1.70;1.00
38866;DHT22;62686;48.984;8.394;2022-12-11T13:33:31;1.70;1.00
38866;DHT22;62686;48.984;8.394;2022-12-11T13:36:21;1.60;1.00
38866;DHT22;62686;48.984;8.394;2022-12-11T13:38:54;1.60;1.00
38866;DHT22;62686;48.984;8.394;2022-12-11T13:41:22;1.40;1.00
38866;DHT22;62686;48.984;8.394;2022-12-11T13:43:51;1.20;1.00
38866;DHT22;62686;48.984;8.394;2022-12-11T13:46:23;1.10;1.00
38866;DHT22;62686;48.984;8.394;2022-12-11T13:48:56;0.90;1.00
38866;DHT22;62686;48.984;8.394;2022-12-11T13:51:28;0.70;1.00
38866;DHT22;62686;48.984;8.394;2022-12-11T13:54:13;0.70;1.00
38866;DHT22;62686;48.984;8.394;2022-12-11T13:57:00;0.60;1.00
38866;DHT22;62686;48.984;8.394;2022-12-11T13:59:31;0.60;1.00
38866;DHT22;62686;48.984;8.394;2022-12-11T14:02:03;0.60;1.00
38866;DHT22;62686;48.984;8.394;2022-12-11T14:04:34;0.60;1.00
38866;DHT22;62686;48.984;8.394;2022-12-11T14:07:06;0.50;1.00
38866;DHT22;62686;48.984;8.394;2022-12-11T14:09:37;0.40;1.00
38866;DHT22;62686;48.984;8.394;2022-12-11T14:12:14;0.30;1.00
38866;DHT22;62686;48.984;8.394;2022-12-11T14:14:45;0.30;1.00
38866;DHT22;62686;48.984;8.394;2022-12-11T14:17:16;0.30;1.00
38866;DHT22;62686;48.984;8.394;2022-12-11T14:19:47;0.30;1.00
38866;DHT22;62686;48.984;8.394;2022-12-11T14:22:18;0.30;3.10
38866;DHT22;62686;48.984;8.394;2022-12-11T14:24:52;0.30;1.00
38866;DHT22;62686;48.984;8.394;2022-12-11T14:27:21;0.30;2.20
38866;DHT22;62686;48.984;8.394;2022-12-11T14:29:50;0.30;3.80
38866;DHT22;62686;48.984;8.394;2022-12-11T14:32:27;0.30;3.90
38866;DHT22;62686;48.984;8.394;2022-12-11T14:34:59;0.20;4.30
38866;DHT22;62686;48.984;8.394;2022-12-11T14:37:29;0.20;5.30
38866;DHT22;62686;48.984;8.394;2022-12-11T14:39:59;0.10;6.80
38866;DHT22;62686;48.984;8.394;2022-12-11T14:42:30;0.10;11.00
38866;DHT22;62686;48.984;8.394;2022-12-11T14:45:04;0.10;14.50
38866;DHT22;62686;48.984;8.394;2022-12-11T14:47:37;0.10;14.90
38866;DHT22;62686;48.984;8.394;2022-12-11T14:50:10;0.20;13.50
38866;DHT22;62686;48.984;8.394;2022-12-11T14:52:42;0.20;12.10
38866;DHT22;62686;48.984;8.394;2022-12-11T14:55:15;0.20;10.80
38866;DHT22;62686;48.984;8.394;2022-12-11T14:57:46;0.20;13.80
38866;DHT22;62686;48.984;8.394;2022-12-11T15:00:23;0.20;12.50
38866;DHT22;62686;48.984;8.394;2022-12-11T15:02:59;0.10;12.10
38866;DHT22;62686;48.984;8.394;2022-12-11T15:05:30;0.10;12.90
38866;DHT22;62686;48.984;8.394;2022-12-11T15:08:16;0.10;13.00
38866;DHT22;62686;48.984;8.394;2022-12-11T15:11:01;0.10;12.80
38866;DHT22;62686;48.984;8.394;2022-12-11T15:13:30;0.10;13.60
38866;DHT22;62686;48.984;8.394;2022-12-11T15:15:58;0.00;15.80
38866;DHT22;62686;48.984;8.394;2022-12-11T15:18:30;0.00;17.10
38866;DHT22;62686;48.984;8.394;2022-12-11T15:21:02;0.00;18.40
38866;DHT22;62686;48.984;8.394;2022-12-11T15:23:36;0.00;20.60
38866;DHT22;62686;48.984;8.394;2022-12-11T15:26:07;0.00;21.00
38866;DHT22;62686;48.984;8.394;2022-12-11T15:28:37;0.00;21.10
38866;DHT22;62686;48.984;8.394;2022-12-11T15:31:19;-0.10;22.20
38866;DHT22;62686;48.984;8.394;2022-12-11T15:33:49;0.00;21.90
38866;DHT22;62686;48.984;8.394;2022-12-11T15:36:24;0.00;22.40
38866;DHT22;62686;48.984;8.394;2022-12-11T15:38:52;-0.10;22.50
38866;DHT22;62686;48.984;8.394;2022-12-11T15:41:21;0.00;22.50
38866;DHT22;62686;48.984;8.394;2022-12-11T15:43:51;0.00;19.60
38866;DHT22;62686;48.984;8.394;2022-12-11T15:46:23;-0.10;20.00
38866;DHT22;62686;48.984;8.394;2022-12-11T15:48:52;-0.10;22.90
38866;DHT22;62686;48.984;8.394;2022-12-11T15:51:21;-0.10;24.90
38866;DHT22;62686;48.984;8.394;2022-12-11T15:53:50;0.00;24.70
38866;DHT22;62686;48.984;8.394;2022-12-11T15:56:18;-0.10;22.50
38866;DHT22;62686;48.984;8.394;2022-12-11T15:58:47;-0.10;23.50
38866;DHT22;62686;48.984;8.394;2022-12-11T16:01:15;-0.20;27.10
38866;DHT22;62686;48.984;8.394;2022-12-11T16:03:44;-0.10;26.80
38866;DHT22;62686;48.984;8.394;2022-12-11T16:06:12;-0.10;22.40
38866;DHT22;62686;48.984;8.394;2022-12-11T16:08:42;-0.10;23.10
38866;DHT22;62686;48.984;8.394;2022-12-11T16:11:12;-0.10;24.20
38866;DHT22;62686;48.984;8.394;2022-12-11T16:13:40;-0.10;25.50
38866;DHT22;62686;48.984;8.394;2022-12-11T16:16:09;-0.10;25.80